createdAt,value
2022-11-17T00:04:25.236Z,96252.16
2022-11-17T00:09:27.613Z,96244.63
2022-11-17T00:14:32.702Z,96231.66
2022-11-17T00:19:53.561Z,96223.41
2022-11-17T00:24:55.926Z,96236.22
2022-11-17T00:29:58.262Z,96240.25
2022-11-17T00:35:00.732Z,96238.72
2022-11-17T00:40:04.291Z,96228.72
2022-11-17T00:45:07.590Z,96235.97
2022-11-17T00:50:10.744Z,96224.59
2022-11-17T00:55:13.128Z,96204.56
2022-11-17T01:00:16.217Z,96188.72
2022-11-17T01:05:18.650Z,96204.31
2022-11-17T01:10:21.231Z,96192.66
2022-11-17T01:15:23.655Z,96178.88
2022-11-17T01:20:28.739Z,96160.06
2022-11-17T01:25:31.768Z,96158.63
2022-11-17T01:30:34.827Z,96150.25
2022-11-17T01:35:37.428Z,96139.16
2022-11-17T01:40:39.895Z,96135.75
2022-11-17T01:45:42.910Z,96134.41
2022-11-17T01:50:49.431Z,96118.13
2022-11-17T01:55:59.840Z,96115.66
2022-11-17T02:01:02.383Z,96101.41
2022-11-17T02:06:37.735Z,96087.78
2022-11-17T02:11:40.668Z,96064.03
2022-11-17T02:16:43.049Z,96058.38
2022-11-17T02:22:07.332Z,96051.72
2022-11-17T02:27:24.473Z,96045.03
2022-11-17T02:32:58.888Z,96031.09
2022-11-17T02:38:18.130Z,96019.94
2022-11-17T02:43:43.756Z,96000.91
2022-11-17T02:48:59.456Z,95984.09
2022-11-17T02:54:03.059Z,95975.44
2022-11-17T02:59:06.251Z,95981.47
2022-11-17T03:04:27.476Z,95985.41
2022-11-17T03:09:43.276Z,96006.94
2022-11-17T03:15:03.991Z,96045.88
2022-11-17T03:20:22.421Z,96015.91
2022-11-17T03:25:27.700Z,95995.59
2022-11-17T03:30:36.284Z,95990.84
2022-11-17T03:35:49.293Z,96015.13
2022-11-17T03:40:57.681Z,96002.78
2022-11-17T03:46:07.624Z,96004.69
2022-11-17T03:51:19.137Z,96013.53
2022-11-17T03:56:41.159Z,95987.78
2022-11-17T04:01:43.674Z,95987.63
2022-11-17T04:06:46.618Z,95980.78
2022-11-17T04:12:07.482Z,95973.63
2022-11-17T04:17:10.125Z,95971.41
2022-11-17T04:22:12.478Z,95977.56
2022-11-17T04:27:33.715Z,95982.09
2022-11-17T04:32:36.080Z,95970.09
2022-11-17T04:37:38.663Z,95961.09
2022-11-17T04:42:41.111Z,95956.22
2022-11-17T04:47:43.459Z,95961.41
2022-11-17T04:52:45.816Z,95957.16
2022-11-17T04:57:48.169Z,95968.22
2022-11-17T05:02:50.521Z,95962.78
2022-11-17T05:07:53.017Z,95957.19
2022-11-17T05:13:14.080Z,95960.66
2022-11-17T05:18:16.457Z,95974.59
2022-11-17T05:23:38.117Z,95976.09
2022-11-17T05:28:41.655Z,95976.28
2022-11-17T05:33:44.739Z,95985.44
2022-11-17T05:38:51.256Z,95987.69
2022-11-17T05:43:57.060Z,95995.94
2022-11-17T05:48:59.600Z,95993.28
2022-11-17T05:54:01.959Z,95972.91
2022-11-17T05:59:27.702Z,95992.28
2022-11-17T06:04:31.484Z,95981.16
2022-11-17T06:09:36.860Z,95980.97
2022-11-17T06:14:40.252Z,95987.59
2022-11-17T06:19:46.945Z,95979.06
2022-11-17T06:24:52.099Z,95974.94
2022-11-17T06:29:55.933Z,95983.50
2022-11-17T06:34:59.902Z,95979.28
2022-11-17T06:40:02.425Z,95977.00
2022-11-17T06:45:05.480Z,95994.53
2022-11-17T06:50:12.560Z,96000.81
2022-11-17T06:55:15.062Z,95982.81
2022-11-17T07:00:18.231Z,95988.97
2022-11-17T07:05:20.718Z,95998.16
2022-11-17T07:10:23.128Z,95970.03
2022-11-17T07:15:28.356Z,95983.56
2022-11-17T07:20:31.551Z,95983.56
2022-11-17T07:25:33.988Z,95997.00
2022-11-17T07:30:39.542Z,95987.41
2022-11-17T07:35:42.077Z,95979.28
2022-11-17T07:40:44.613Z,95980.91
2022-11-17T07:45:47.158Z,95980.47
2022-11-17T07:50:49.665Z,95977.16
2022-11-17T07:55:52.133Z,95969.94
2022-11-17T08:00:54.611Z,95971.78
2022-11-17T08:05:57.814Z,95975.94
2022-11-17T08:11:07.609Z,95988.31
2022-11-17T08:16:12.536Z,95980.50
2022-11-17T08:21:17.770Z,95985.66
2022-11-17T08:26:20.988Z,95980.34
2022-11-17T08:31:23.518Z,95983.34
2022-11-17T08:36:25.989Z,95993.28
2022-11-17T08:41:28.483Z,95982.19
2022-11-17T08:46:30.994Z,95980.06
2022-11-17T08:51:33.534Z,95995.78
2022-11-17T08:56:35.965Z,96005.34
2022-11-17T09:01:38.715Z,96006.66
2022-11-17T09:06:41.515Z,96011.69
2022-11-17T09:11:44.054Z,96019.69
2022-11-17T09:16:46.588Z,96036.03
2022-11-17T09:21:49.071Z,96012.72
2022-11-17T09:26:54.542Z,96025.19
2022-11-17T09:31:59.948Z,96030.97
2022-11-17T09:37:02.430Z,96037.66
2022-11-17T09:42:08.124Z,96048.44
2022-11-17T09:47:35.472Z,96061.34
2022-11-17T09:52:44.872Z,96055.50
2022-11-17T09:58:01.411Z,96056.47
2022-11-17T10:03:10.687Z,96064.66
2022-11-17T10:08:18.484Z,96060.22
2022-11-17T10:13:35.859Z,96083.63
2022-11-17T10:18:39.694Z,96064.28
2022-11-17T10:23:50.669Z,96056.06
2022-11-17T10:29:13.112Z,96064.59
2022-11-17T10:34:41.593Z,96061.41
2022-11-17T10:39:44.419Z,96073.72
2022-11-17T10:44:53.559Z,96066.97
2022-11-17T10:50:23.739Z,96070.16
2022-11-17T10:55:37.892Z,96065.69
2022-11-17T11:00:41.393Z,96065.69
2022-11-17T11:06:01.854Z,96059.00
2022-11-17T11:11:12.761Z,96066.47
2022-11-17T11:16:15.189Z,96051.31
2022-11-17T11:21:59.673Z,96069.34
2022-11-17T11:27:26.386Z,96054.31
2022-11-17T11:32:53.862Z,96052.22
2022-11-17T11:38:08.492Z,96062.91
2022-11-17T11:43:39.644Z,96070.31
2022-11-17T11:48:42.178Z,96064.91
2022-11-17T11:54:00.958Z,96063.63
2022-11-17T11:59:21.616Z,96058.31
2022-11-17T12:04:48.665Z,96057.91
2022-11-17T12:10:04.011Z,96059.91
2022-11-17T12:15:26.650Z,96057.75
2022-11-17T12:20:31.827Z,96059.34
2022-11-17T12:25:36.198Z,96051.38
2022-11-17T12:30:47.080Z,96049.59
2022-11-17T12:36:16.698Z,96069.94
2022-11-17T12:41:47.168Z,96064.72
2022-11-17T12:46:55.119Z,96061.69
2022-11-17T12:52:06.525Z,96057.38
2022-11-17T12:57:15.622Z,96050.44
2022-11-17T13:02:20.965Z,96057.38
2022-11-17T13:07:27.205Z,96053.72
2022-11-17T13:12:35.015Z,96049.97
2022-11-17T13:17:43.767Z,96062.19
2022-11-17T13:23:06.793Z,96051.50
2022-11-17T13:28:34.373Z,96071.34
2022-11-17T13:33:40.270Z,96065.09
2022-11-17T13:38:51.284Z,96076.72
2022-11-17T13:43:55.261Z,96082.94
2022-11-17T13:48:57.869Z,96076.44
2022-11-17T13:54:13.034Z,96070.72
2022-11-17T13:59:32.647Z,96076.34
2022-11-17T14:04:36.292Z,96075.31
2022-11-17T14:09:39.017Z,96073.59
2022-11-17T14:14:44.373Z,96077.03
2022-11-17T14:19:47.275Z,96079.03
2022-11-17T14:24:50.260Z,96084.00
2022-11-17T14:29:52.729Z,96069.31
2022-11-17T14:34:55.214Z,96072.00
2022-11-17T14:39:58.386Z,96067.53
2022-11-17T14:45:00.891Z,96063.28
2022-11-17T14:50:06.477Z,96057.09
2022-11-17T14:55:11.144Z,96054.44
2022-11-17T15:00:20.393Z,96058.59
2022-11-17T15:05:26.008Z,96067.25
2022-11-17T15:10:28.441Z,96060.53
2022-11-17T15:15:33.263Z,96063.16
2022-11-17T15:20:35.662Z,96059.31
2022-11-17T15:25:41.070Z,96047.41
2022-11-17T15:30:43.614Z,96042.16
2022-11-17T15:35:46.111Z,96036.13
2022-11-17T15:40:54.936Z,96038.06
2022-11-17T15:46:08.078Z,96028.88
2022-11-17T15:51:16.049Z,96035.59
2022-11-17T15:56:24.352Z,96034.53
2022-11-17T16:01:28.892Z,96029.84
2022-11-17T16:06:32.983Z,96026.34
2022-11-17T16:11:36.427Z,96030.03
2022-11-17T16:16:40.086Z,96030.97
2022-11-17T16:21:42.668Z,96043.09
2022-11-17T16:26:45.894Z,96033.72
2022-11-17T16:31:48.336Z,96049.59
2022-11-17T16:36:50.758Z,96042.53
2022-11-17T16:41:54.635Z,96042.53
2022-11-17T16:46:57.104Z,96041.16
2022-11-17T16:51:59.569Z,96042.53
2022-11-17T16:57:01.934Z,96043.75
2022-11-17T17:02:06.923Z,96045.09
2022-11-17T17:07:09.971Z,96045.78
2022-11-17T17:12:13.041Z,96037.63
2022-11-17T17:17:16.973Z,96053.00
2022-11-17T17:22:19.724Z,96041.59
2022-11-17T17:27:22.242Z,96057.34
2022-11-17T17:32:24.600Z,96067.91
2022-11-17T17:37:27.029Z,96072.06
2022-11-17T17:42:32.312Z,96081.25
2022-11-17T17:47:34.766Z,96083.38
2022-11-17T17:52:37.544Z,96070.00
2022-11-17T17:57:41.076Z,96067.38
2022-11-17T18:02:43.673Z,96060.91
2022-11-17T18:07:46.107Z,96067.25
2022-11-17T18:12:48.637Z,96074.47
2022-11-17T18:17:51.085Z,96068.00
2022-11-17T18:22:53.528Z,96077.19
2022-11-17T18:27:57.138Z,96062.84
2022-11-17T18:33:02.960Z,96069.00
2022-11-17T18:38:05.747Z,96069.19
2022-11-17T18:43:08.209Z,96069.84
2022-11-17T18:48:11.067Z,96076.84
2022-11-17T18:53:13.705Z,96090.00
2022-11-17T18:58:16.095Z,96094.91
2022-11-17T19:03:19.415Z,96087.97
2022-11-17T19:08:22.876Z,96105.41
2022-11-17T19:13:28.683Z,96102.53
2022-11-17T19:18:31.249Z,96115.34
2022-11-17T19:23:35.758Z,96112.06
2022-11-17T19:28:39.458Z,96123.19
2022-11-17T19:33:43.438Z,96128.56
2022-11-17T19:38:49.955Z,96133.53
2022-11-17T19:43:56.800Z,96150.91
2022-11-17T19:48:59.642Z,96184.78
2022-11-17T19:54:04.166Z,96187.53
2022-11-17T19:59:09.667Z,96209.19
2022-11-17T20:04:15.196Z,96215.28
2022-11-17T20:09:17.894Z,96198.19
2022-11-17T20:14:20.602Z,96190.09
2022-11-17T20:19:23.038Z,96191.84
2022-11-17T20:24:25.490Z,96183.63
2022-11-17T20:29:27.991Z,96186.59
2022-11-17T20:34:30.427Z,96192.44
2022-11-17T20:39:32.817Z,96206.00
2022-11-17T20:44:35.363Z,96215.75
2022-11-17T20:49:38.044Z,96225.13
2022-11-17T20:54:40.705Z,96232.34
2022-11-17T20:59:43.648Z,96229.63
2022-11-17T21:04:46.152Z,96240.19
2022-11-17T21:09:48.596Z,96229.63
2022-11-17T21:14:51.417Z,96228.75
2022-11-17T21:19:53.854Z,96233.91
2022-11-17T21:24:56.256Z,96234.00
2022-11-17T21:30:01.462Z,96241.13
2022-11-17T21:35:05.939Z,96254.41
2022-11-17T21:40:09.109Z,96264.22
2022-11-17T21:45:11.999Z,96266.81
2022-11-17T21:50:14.483Z,96274.03
2022-11-17T21:55:17.013Z,96283.09
2022-11-17T22:00:19.718Z,96280.69
2022-11-17T22:05:22.676Z,96265.94
2022-11-17T22:10:25.340Z,96236.13
2022-11-17T22:15:27.836Z,96239.75
2022-11-17T22:20:30.279Z,96230.72
2022-11-17T22:25:45.296Z,96224.25
2022-11-17T22:30:48.473Z,96234.50
2022-11-17T22:35:51.009Z,96220.78
2022-11-17T22:40:58.535Z,96211.94
2022-11-17T22:46:11.917Z,96222.59
2022-11-17T22:51:34.851Z,96214.75
2022-11-17T22:56:37.430Z,96225.59
2022-11-17T23:01:40.092Z,96218.69
2022-11-17T23:06:43.168Z,96220.50
2022-11-17T23:11:45.860Z,96218.09
2022-11-17T23:16:48.310Z,96228.63
2022-11-17T23:21:50.679Z,96222.59
2022-11-17T23:26:53.082Z,96219.28
2022-11-17T23:31:55.557Z,96227.72
2022-11-17T23:37:03.360Z,96214.34
2022-11-17T23:42:06.359Z,96217.03
2022-11-17T23:47:09.053Z,96208.16
2022-11-17T23:52:11.743Z,96223.34
2022-11-17T23:57:14.283Z,96208.00
